sensor_id;sensor_type;location;lat;lon;timestamp;P1;durP1;ratioP1;P2;durP2;ratioP2
29006;SDS011;16104;48.642;9.008;2022-09-28T01:02:28;2.72;;;0.80;;
29006;SDS011;16104;48.642;9.008;2022-09-28T01:07:24;2.03;;;0.73;;
29006;SDS011;16104;48.642;9.008;2022-09-28T01:12:20;3.83;;;0.73;;
29006;SDS011;16104;48.642;9.008;2022-09-28T02:03:05;1.85;;;0.85;;
29006;SDS011;16104;48.642;9.008;2022-09-28T02:13:23;2.33;;;0.80;;
29006;SDS011;16104;48.642;9.008;2022-09-28T03:04:20;4.07;;;1.25;;
29006;SDS011;16104;48.642;9.008;2022-09-28T03:09:25;4.53;;;1.05;;
29006;SDS011;16104;48.642;9.008;2022-09-28T03:14:46;2.53;;;1.00;;
29006;SDS011;16104;48.642;9.008;2022-09-28T03:19:41;4.18;;;1.10;;
29006;SDS011;16104;48.642;9.008;2022-09-28T03:24:37;4.50;;;1.00;;
29006;SDS011;16104;48.642;9.008;2022-09-28T03:29:33;5.85;;;1.30;;
29006;SDS011;16104;48.642;9.008;2022-09-28T03:34:29;3.15;;;0.90;;
29006;SDS011;16104;48.642;9.008;2022-09-28T03:39:25;2.40;;;1.02;;
29006;SDS011;16104;48.642;9.008;2022-09-28T03:44:20;3.13;;;0.80;;
29006;SDS011;16104;48.642;9.008;2022-09-28T03:49:16;2.25;;;0.80;;
29006;SDS011;16104;48.642;9.008;2022-09-28T03:54:12;6.13;;;0.80;;
29006;SDS011;16104;48.642;9.008;2022-09-28T03:59:07;5.85;;;0.95;;
29006;SDS011;16104;48.642;9.008;2022-09-28T04:04:03;2.58;;;0.70;;
29006;SDS011;16104;48.642;9.008;2022-09-28T04:08:59;2.85;;;0.93;;
29006;SDS011;16104;48.642;9.008;2022-09-28T04:13:55;1.30;;;0.77;;
29006;SDS011;16104;48.642;9.008;2022-09-28T04:18:51;4.63;;;1.95;;
29006;SDS011;16104;48.642;9.008;2022-09-28T04:23:46;3.83;;;1.20;;
29006;SDS011;16104;48.642;9.008;2022-09-28T04:28:43;3.70;;;1.40;;
29006;SDS011;16104;48.642;9.008;2022-09-28T04:33:58;1.75;;;0.73;;
29006;SDS011;16104;48.642;9.008;2022-09-28T04:38:54;2.63;;;0.82;;
29006;SDS011;16104;48.642;9.008;2022-09-28T04:43:49;2.97;;;1.05;;
29006;SDS011;16104;48.642;9.008;2022-09-28T04:48:45;1.52;;;0.93;;
29006;SDS011;16104;48.642;9.008;2022-09-28T04:53:41;2.33;;;1.17;;
29006;SDS011;16104;48.642;9.008;2022-09-28T04:58:37;0.50;;;0.43;;
29006;SDS011;16104;48.642;9.008;2022-09-28T05:03:33;1.65;;;0.40;;
29006;SDS011;16104;48.642;9.008;2022-09-28T05:08:30;2.17;;;0.50;;
29006;SDS011;16104;48.642;9.008;2022-09-28T05:13:26;0.50;;;0.30;;
29006;SDS011;16104;48.642;9.008;2022-09-28T05:18:23;0.90;;;0.40;;
29006;SDS011;16104;48.642;9.008;2022-09-28T05:23:19;2.00;;;0.47;;
29006;SDS011;16104;48.642;9.008;2022-09-28T05:28:19;0.32;;;0.30;;
29006;SDS011;16104;48.642;9.008;2022-09-28T05:33:21;2.17;;;0.50;;
29006;SDS011;16104;48.642;9.008;2022-09-28T05:38:17;0.88;;;0.43;;
29006;SDS011;16104;48.642;9.008;2022-09-28T05:43:12;0.40;;;0.30;;
29006;SDS011;16104;48.642;9.008;2022-09-28T05:48:08;1.13;;;0.40;;
29006;SDS011;16104;48.642;9.008;2022-09-28T05:53:05;2.22;;;0.80;;
29006;SDS011;16104;48.642;9.008;2022-09-28T05:58:03;2.35;;;1.00;;
29006;SDS011;16104;48.642;9.008;2022-09-28T06:03:04;1.98;;;0.98;;
29006;SDS011;16104;48.642;9.008;2022-09-28T06:08:01;2.13;;;0.90;;
29006;SDS011;16104;48.642;9.008;2022-09-28T06:12:59;1.67;;;0.60;;
29006;SDS011;16104;48.642;9.008;2022-09-28T06:18:02;1.33;;;0.60;;
29006;SDS011;16104;48.642;9.008;2022-09-28T06:22:59;1.15;;;0.60;;
29006;SDS011;16104;48.642;9.008;2022-09-28T06:27:58;1.77;;;0.60;;
29006;SDS011;16104;48.642;9.008;2022-09-28T06:33:03;1.42;;;0.80;;
29006;SDS011;16104;48.642;9.008;2022-09-28T06:38:01;1.83;;;0.60;;
29006;SDS011;16104;48.642;9.008;2022-09-28T06:43:01;1.00;;;0.43;;
29006;SDS011;16104;48.642;9.008;2022-09-28T06:48:04;0.82;;;0.50;;
29006;SDS011;16104;48.642;9.008;2022-09-28T06:53:00;2.17;;;0.50;;
29006;SDS011;16104;48.642;9.008;2022-09-28T06:58:00;5.35;;;0.73;;
29006;SDS011;16104;48.642;9.008;2022-09-28T07:03:07;1.15;;;0.52;;
29006;SDS011;16104;48.642;9.008;2022-09-28T07:08:05;1.50;;;0.50;;
29006;SDS011;16104;48.642;9.008;2022-09-28T07:13:02;1.73;;;0.68;;
29006;SDS011;16104;48.642;9.008;2022-09-28T07:17:59;2.03;;;0.82;;
29006;SDS011;16104;48.642;9.008;2022-09-28T07:22:56;2.47;;;0.50;;
29006;SDS011;16104;48.642;9.008;2022-09-28T07:27:57;0.80;;;0.63;;
29006;SDS011;16104;48.642;9.008;2022-09-28T07:37:56;1.52;;;0.82;;
29006;SDS011;16104;48.642;9.008;2022-09-28T07:43:02;3.13;;;1.00;;
29006;SDS011;16104;48.642;9.008;2022-09-28T07:47:59;2.00;;;0.80;;
29006;SDS011;16104;48.642;9.008;2022-09-28T07:52:55;2.58;;;0.80;;
29006;SDS011;16104;48.642;9.008;2022-09-28T07:57:57;2.25;;;0.90;;
29006;SDS011;16104;48.642;9.008;2022-09-28T08:02:57;3.63;;;0.85;;
29006;SDS011;16104;48.642;9.008;2022-09-28T08:07:54;2.60;;;0.93;;
29006;SDS011;16104;48.642;9.008;2022-09-28T08:12:53;2.70;;;0.95;;
29006;SDS011;16104;48.642;9.008;2022-09-28T08:17:50;1.92;;;1.00;;
29006;SDS011;16104;48.642;9.008;2022-09-28T08:22:45;2.67;;;1.23;;
29006;SDS011;16104;48.642;9.008;2022-09-28T08:27:41;3.92;;;1.17;;
29006;SDS011;16104;48.642;9.008;2022-09-28T08:32:37;3.70;;;1.08;;
29006;SDS011;16104;48.642;9.008;2022-09-28T08:37:32;4.38;;;1.30;;
29006;SDS011;16104;48.642;9.008;2022-09-28T08:53:22;5.68;;;1.70;;
29006;SDS011;16104;48.642;9.008;2022-09-28T08:58:36;1.65;;;1.40;;
29006;SDS011;16104;48.642;9.008;2022-09-28T09:03:36;3.30;;;1.45;;
29006;SDS011;16104;48.642;9.008;2022-09-28T09:14:01;6.18;;;1.77;;
29006;SDS011;16104;48.642;9.008;2022-09-28T09:19:26;3.85;;;1.50;;
29006;SDS011;16104;48.642;9.008;2022-09-28T09:24:51;7.63;;;1.90;;
29006;SDS011;16104;48.642;9.008;2022-09-28T09:29:59;5.35;;;1.60;;
29006;SDS011;16104;48.642;9.008;2022-09-28T09:35:28;3.83;;;1.40;;
29006;SDS011;16104;48.642;9.008;2022-09-28T09:51:03;2.58;;;1.33;;
29006;SDS011;16104;48.642;9.008;2022-09-28T09:56:13;4.30;;;1.30;;
29006;SDS011;16104;48.642;9.008;2022-09-28T10:01:15;5.47;;;1.17;;
29006;SDS011;16104;48.642;9.008;2022-09-28T10:06:29;5.40;;;1.00;;
29006;SDS011;16104;48.642;9.008;2022-09-28T10:11:31;5.75;;;1.20;;
29006;SDS011;16104;48.642;9.008;2022-09-28T10:16:30;2.65;;;0.95;;
29006;SDS011;16104;48.642;9.008;2022-09-28T10:21:29;3.15;;;1.17;;
29006;SDS011;16104;48.642;9.008;2022-09-28T10:26:32;4.57;;;1.20;;
29006;SDS011;16104;48.642;9.008;2022-09-28T10:36:50;2.25;;;0.90;;
29006;SDS011;16104;48.642;9.008;2022-09-28T10:41:50;3.75;;;1.15;;
29006;SDS011;16104;48.642;9.008;2022-09-28T10:46:54;5.00;;;1.02;;
29006;SDS011;16104;48.642;9.008;2022-09-28T10:51:51;2.42;;;0.95;;
29006;SDS011;16104;48.642;9.008;2022-09-28T10:56:50;3.72;;;1.10;;
29006;SDS011;16104;48.642;9.008;2022-09-28T11:01:50;4.13;;;1.13;;
29006;SDS011;16104;48.642;9.008;2022-09-28T11:06:48;2.03;;;0.90;;
29006;SDS011;16104;48.642;9.008;2022-09-28T11:11:45;3.92;;;1.25;;
29006;SDS011;16104;48.642;9.008;2022-09-28T11:16:41;4.90;;;1.10;;
29006;SDS011;16104;48.642;9.008;2022-09-28T11:21:41;1.60;;;0.93;;
29006;SDS011;16104;48.642;9.008;2022-09-28T11:26:41;1.50;;;0.77;;
29006;SDS011;16104;48.642;9.008;2022-09-28T11:31:38;4.38;;;0.90;;
29006;SDS011;16104;48.642;9.008;2022-09-28T11:47:33;3.17;;;0.90;;
29006;SDS011;16104;48.642;9.008;2022-09-28T11:52:48;7.18;;;1.00;;
29006;SDS011;16104;48.642;9.008;2022-09-28T11:57:52;4.10;;;1.15;;
29006;SDS011;16104;48.642;9.008;2022-09-28T12:08:18;3.85;;;0.75;;
29006;SDS011;16104;48.642;9.008;2022-09-28T12:13:21;4.05;;;0.90;;
29006;SDS011;16104;48.642;9.008;2022-09-28T12:18:34;2.25;;;0.80;;
29006;SDS011;16104;48.642;9.008;2022-09-28T12:23:35;5.00;;;0.80;;
29006;SDS011;16104;48.642;9.008;2022-09-28T12:33:33;2.60;;;1.20;;
29006;SDS011;16104;48.642;9.008;2022-09-28T12:38:34;3.63;;;0.80;;
29006;SDS011;16104;48.642;9.008;2022-09-28T12:54:35;3.58;;;0.90;;
29006;SDS011;16104;48.642;9.008;2022-09-28T13:10:17;2.08;;;0.77;;
29006;SDS011;16104;48.642;9.008;2022-09-28T13:31:10;2.30;;;0.93;;
29006;SDS011;16104;48.642;9.008;2022-09-28T13:57:43;1.42;;;0.82;;
29006;SDS011;16104;48.642;9.008;2022-09-28T14:02:47;1.77;;;0.73;;
29006;SDS011;16104;48.642;9.008;2022-09-28T14:13:02;1.75;;;0.80;;
29006;SDS011;16104;48.642;9.008;2022-09-28T14:28:32;4.55;;;0.82;;
29006;SDS011;16104;48.642;9.008;2022-09-28T14:33:34;3.55;;;0.85;;
29006;SDS011;16104;48.642;9.008;2022-09-28T14:38:34;3.58;;;0.88;;
29006;SDS011;16104;48.642;9.008;2022-09-28T14:44:03;4.30;;;0.90;;
29006;SDS011;16104;48.642;9.008;2022-09-28T14:54:24;2.15;;;0.90;;
29006;SDS011;16104;48.642;9.008;2022-09-28T14:59:23;7.28;;;5.03;;
29006;SDS011;16104;48.642;9.008;2022-09-28T15:04:19;2.40;;;1.80;;
29006;SDS011;16104;48.642;9.008;2022-09-28T15:25:19;2.72;;;1.67;;
29006;SDS011;16104;48.642;9.008;2022-09-28T15:35:23;2.75;;;1.00;;
29006;SDS011;16104;48.642;9.008;2022-09-28T15:45:27;4.20;;;1.73;;
29006;SDS011;16104;48.642;9.008;2022-09-28T15:50:29;4.93;;;1.75;;
29006;SDS011;16104;48.642;9.008;2022-09-28T15:55:29;3.83;;;1.60;;
29006;SDS011;16104;48.642;9.008;2022-09-28T16:00:30;4.15;;;2.53;;
29006;SDS011;16104;48.642;9.008;2022-09-28T16:05:29;4.30;;;2.47;;
29006;SDS011;16104;48.642;9.008;2022-09-28T16:10:30;4.03;;;2.90;;
29006;SDS011;16104;48.642;9.008;2022-09-28T16:15:29;4.20;;;2.58;;
29006;SDS011;16104;48.642;9.008;2022-09-28T16:25:26;3.65;;;1.90;;
29006;SDS011;16104;48.642;9.008;2022-09-28T16:30:32;8.45;;;4.50;;
29006;SDS011;16104;48.642;9.008;2022-09-28T16:40:25;2.67;;;1.30;;
29006;SDS011;16104;48.642;9.008;2022-09-28T16:45:22;22.27;;;14.25;;
29006;SDS011;16104;48.642;9.008;2022-09-28T16:50:19;63.10;;;32.28;;
29006;SDS011;16104;48.642;9.008;2022-09-28T16:55:15;17.20;;;8.88;;
29006;SDS011;16104;48.642;9.008;2022-09-28T17:00:22;6.80;;;3.30;;
29006;SDS011;16104;48.642;9.008;2022-09-28T17:05:19;3.65;;;2.20;;
29006;SDS011;16104;48.642;9.008;2022-09-28T17:10:38;6.00;;;3.25;;
29006;SDS011;16104;48.642;9.008;2022-09-28T17:15:34;9.55;;;2.70;;
29006;SDS011;16104;48.642;9.008;2022-09-28T17:20:29;4.60;;;3.22;;
29006;SDS011;16104;48.642;9.008;2022-09-28T17:25:27;3.65;;;2.28;;
29006;SDS011;16104;48.642;9.008;2022-09-28T17:30:22;4.72;;;2.80;;
29006;SDS011;16104;48.642;9.008;2022-09-28T17:35:18;5.05;;;2.50;;
29006;SDS011;16104;48.642;9.008;2022-09-28T17:40:19;6.35;;;3.67;;
29006;SDS011;16104;48.642;9.008;2022-09-28T17:45:16;5.53;;;3.20;;
29006;SDS011;16104;48.642;9.008;2022-09-28T17:50:17;7.28;;;3.65;;
29006;SDS011;16104;48.642;9.008;2022-09-28T17:55:15;6.20;;;2.85;;
29006;SDS011;16104;48.642;9.008;2022-09-28T18:00:21;6.68;;;3.13;;
29006;SDS011;16104;48.642;9.008;2022-09-28T18:05:17;3.78;;;2.78;;
29006;SDS011;16104;48.642;9.008;2022-09-28T18:10:14;6.97;;;3.00;;
29006;SDS011;16104;48.642;9.008;2022-09-28T18:15:13;4.10;;;2.50;;
29006;SDS011;16104;48.642;9.008;2022-09-28T18:20:10;7.57;;;4.03;;
29006;SDS011;16104;48.642;9.008;2022-09-28T18:25:07;7.57;;;3.80;;
29006;SDS011;16104;48.642;9.008;2022-09-28T18:30:03;5.78;;;3.70;;
29006;SDS011;16104;48.642;9.008;2022-09-28T18:34:59;6.68;;;3.00;;
29006;SDS011;16104;48.642;9.008;2022-09-28T18:39:55;7.18;;;3.75;;
29006;SDS011;16104;48.642;9.008;2022-09-28T18:44:51;7.43;;;4.43;;
29006;SDS011;16104;48.642;9.008;2022-09-28T18:49:47;9.57;;;5.57;;
29006;SDS011;16104;48.642;9.008;2022-09-28T18:54:44;8.73;;;4.30;;
29006;SDS011;16104;48.642;9.008;2022-09-28T18:59:44;5.53;;;3.10;;
29006;SDS011;16104;48.642;9.008;2022-09-28T19:04:40;8.85;;;4.80;;
29006;SDS011;16104;48.642;9.008;2022-09-28T19:09:35;5.18;;;3.25;;
29006;SDS011;16104;48.642;9.008;2022-09-28T19:14:31;7.47;;;3.78;;
29006;SDS011;16104;48.642;9.008;2022-09-28T19:19:26;22.27;;;8.35;;
29006;SDS011;16104;48.642;9.008;2022-09-28T19:24:23;27.40;;;9.65;;
29006;SDS011;16104;48.642;9.008;2022-09-28T19:29:19;34.15;;;9.60;;
29006;SDS011;16104;48.642;9.008;2022-09-28T19:34:15;23.05;;;9.00;;
29006;SDS011;16104;48.642;9.008;2022-09-28T19:39:13;13.48;;;7.03;;
29006;SDS011;16104;48.642;9.008;2022-09-28T19:44:18;5.90;;;3.20;;
29006;SDS011;16104;48.642;9.008;2022-09-28T19:49:18;5.57;;;3.13;;
29006;SDS011;16104;48.642;9.008;2022-09-28T19:54:15;6.60;;;2.60;;
29006;SDS011;16104;48.642;9.008;2022-09-28T19:59:12;5.78;;;2.92;;
29006;SDS011;16104;48.642;9.008;2022-09-28T20:04:08;5.97;;;3.00;;
29006;SDS011;16104;48.642;9.008;2022-09-28T20:09:05;6.85;;;3.10;;
29006;SDS011;16104;48.642;9.008;2022-09-28T20:14:01;5.18;;;2.95;;
29006;SDS011;16104;48.642;9.008;2022-09-28T20:19:02;7.07;;;3.03;;
29006;SDS011;16104;48.642;9.008;2022-09-28T20:23:58;5.80;;;3.05;;
29006;SDS011;16104;48.642;9.008;2022-09-28T20:28:54;5.90;;;3.20;;
29006;SDS011;16104;48.642;9.008;2022-09-28T20:33:50;8.07;;;3.78;;
29006;SDS011;16104;48.642;9.008;2022-09-28T20:38:50;7.93;;;3.53;;
29006;SDS011;16104;48.642;9.008;2022-09-28T20:43:51;6.20;;;3.28;;
29006;SDS011;16104;48.642;9.008;2022-09-28T20:48:48;8.75;;;3.45;;
29006;SDS011;16104;48.642;9.008;2022-09-28T20:53:48;6.35;;;3.38;;
29006;SDS011;16104;48.642;9.008;2022-09-28T20:58:49;6.38;;;2.80;;
29006;SDS011;16104;48.642;9.008;2022-09-28T21:08:42;7.20;;;3.00;;
29006;SDS011;16104;48.642;9.008;2022-09-28T21:13:39;6.28;;;2.80;;
29006;SDS011;16104;48.642;9.008;2022-09-28T21:18:37;5.78;;;3.30;;
29006;SDS011;16104;48.642;9.008;2022-09-28T21:23:33;4.75;;;3.20;;
29006;SDS011;16104;48.642;9.008;2022-09-28T21:28:32;5.07;;;3.08;;
29006;SDS011;16104;48.642;9.008;2022-09-28T21:33:28;5.38;;;2.85;;
29006;SDS011;16104;48.642;9.008;2022-09-28T21:38:24;7.15;;;3.75;;
29006;SDS011;16104;48.642;9.008;2022-09-28T21:43:19;5.60;;;3.40;;
29006;SDS011;16104;48.642;9.008;2022-09-28T21:48:15;9.15;;;5.18;;
29006;SDS011;16104;48.642;9.008;2022-09-28T21:53:11;9.82;;;6.03;;
29006;SDS011;16104;48.642;9.008;2022-09-28T21:58:06;18.98;;;9.48;;
29006;SDS011;16104;48.642;9.008;2022-09-28T22:03:02;29.63;;;12.25;;
29006;SDS011;16104;48.642;9.008;2022-09-28T22:07:59;13.18;;;7.35;;
29006;SDS011;16104;48.642;9.008;2022-09-28T22:12:55;9.32;;;6.32;;
29006;SDS011;16104;48.642;9.008;2022-09-28T22:17:51;7.20;;;4.80;;
29006;SDS011;16104;48.642;9.008;2022-09-28T22:22:49;13.13;;;6.25;;
29006;SDS011;16104;48.642;9.008;2022-09-28T22:27:46;10.65;;;4.93;;
29006;SDS011;16104;48.642;9.008;2022-09-28T22:32:42;9.50;;;6.35;;
29006;SDS011;16104;48.642;9.008;2022-09-28T22:37:38;8.10;;;5.30;;
29006;SDS011;16104;48.642;9.008;2022-09-28T22:42:33;8.52;;;4.80;;
29006;SDS011;16104;48.642;9.008;2022-09-28T22:47:29;8.27;;;5.03;;
29006;SDS011;16104;48.642;9.008;2022-09-28T22:52:25;7.05;;;4.25;;
29006;SDS011;16104;48.642;9.008;2022-09-28T22:57:20;7.85;;;4.53;;
29006;SDS011;16104;48.642;9.008;2022-09-28T23:02:16;9.50;;;4.07;;
29006;SDS011;16104;48.642;9.008;2022-09-28T23:07:12;6.88;;;4.32;;
29006;SDS011;16104;48.642;9.008;2022-09-28T23:12:07;5.85;;;3.50;;
29006;SDS011;16104;48.642;9.008;2022-09-28T23:17:03;6.80;;;3.50;;
29006;SDS011;16104;48.642;9.008;2022-09-28T23:21:59;5.00;;;3.22;;
29006;SDS011;16104;48.642;9.008;2022-09-28T23:26:55;4.60;;;3.50;;
29006;SDS011;16104;48.642;9.008;2022-09-28T23:31:50;4.95;;;3.38;;
29006;SDS011;16104;48.642;9.008;2022-09-28T23:36:46;5.45;;;3.30;;
29006;SDS011;16104;48.642;9.008;2022-09-28T23:41:42;6.90;;;3.67;;
29006;SDS011;16104;48.642;9.008;2022-09-28T23:46:37;4.68;;;2.97;;
29006;SDS011;16104;48.642;9.008;2022-09-28T23:51:33;4.53;;;3.30;;
29006;SDS011;16104;48.642;9.008;2022-09-28T23:56:28;3.60;;;2.95;;
